KNDZ

Whiting Field NAS South Airport

Milton, Florida, USA
METAR KNDZ 252156Z 00000KT 10SM FEW033 SCT055 BKN085 BKN250 26/24 A2992 RMK AO2 RAE21 TSE36 SLP118 CB DSNT N T1 SET P0002 T02610239 $
Observed Flight Rules
May-25 @ 21:56 UTC (30 minutes ago) Visual Flight Rules
Visibility Clouds
10 miles
  • Few at 3,300' AGL
  • Scattered at 5,500' AGL
  • Broken at 8,500' AGL
  • Broken at 25,000' AGL
Temperatures Readings Precipitation
Current 26°C / 79°F
Dewpoint 24°C / 75°F
Humidity 89%
Altimeter 29.92" Hg
Pressure 1011.8 hPa
Elevation 54
Current Rain 0.02
METAR KNDZ 252156Z 00000KT 10SM FEW033 SCT055 BKN085 BKN250 26/24 A2992 RMK AO2 RAE21 TSE36 SLP118 CB DSNT N T1 SET P0002 T02610239 $
Observed Flight Rules
May-25 @ 21:56 UTC
(30 minutes ago)
VFR
Clouds
  • Few at 3,300' AGL
  • Scattered at 5,500' AGL
  • Broken at 8,500' AGL
  • Broken at 25,000' AGL
Temperature Dewpoint
26°C / 79°F 24°C / 75°F
Humidity Altimeter Pressure
89% 29.92" Hg 1011.8 hPa
Current Rain
0.02